createdAt,value
2017-08-17T00:01:57.578Z,6.83
2017-08-17T00:04:30.657Z,6.60
2017-08-17T00:07:03.329Z,6.10
2017-08-17T00:09:34.561Z,6.67
2017-08-17T00:12:10.261Z,7.00
2017-08-17T00:14:41.720Z,7.13
2017-08-17T00:17:13.223Z,7.47
2017-08-17T00:19:44.339Z,6.93
2017-08-17T00:22:15.947Z,6.73
2017-08-17T00:24:48.975Z,8.43
2017-08-17T00:27:20.002Z,7.00
2017-08-17T00:29:51.045Z,7.33
2017-08-17T00:32:22.189Z,7.33
2017-08-17T00:34:53.272Z,7.27
2017-08-17T00:37:24.386Z,8.50
2017-08-17T00:39:56.648Z,8.00
2017-08-17T00:42:27.852Z,8.50
2017-08-17T00:45:01.027Z,7.63
2017-08-17T00:47:32.464Z,7.83
2017-08-17T00:50:07.073Z,6.70
2017-08-17T00:52:38.202Z,8.27
2017-08-17T00:55:10.150Z,8.40
2017-08-17T00:57:41.187Z,8.87
2017-08-17T01:00:13.687Z,9.00
2017-08-17T01:02:45.263Z,9.43
2017-08-17T01:05:16.318Z,8.33
2017-08-17T01:07:47.362Z,7.47
2017-08-17T01:10:19.433Z,9.70
2017-08-17T01:12:50.484Z,9.73
2017-08-17T01:15:21.582Z,8.90
2017-08-17T01:17:53.212Z,9.10
2017-08-17T01:20:24.258Z,10.00
2017-08-17T01:22:55.582Z,9.10
2017-08-17T01:25:26.704Z,9.50
2017-08-17T01:28:00.621Z,10.00
2017-08-17T01:30:31.663Z,9.43
2017-08-17T01:33:04.431Z,9.13
2017-08-17T01:35:35.492Z,9.17
2017-08-17T01:38:07.907Z,9.00
2017-08-17T01:40:38.958Z,10.33
2017-08-17T01:43:10.463Z,10.43
2017-08-17T01:45:41.482Z,10.60
2017-08-17T01:48:12.690Z,9.63
2017-08-17T01:50:43.813Z,10.50
2017-08-17T01:53:15.239Z,11.57
2017-08-17T01:55:46.271Z,10.07
2017-08-17T01:58:17.874Z,10.70
2017-08-17T02:00:49.466Z,11.13
2017-08-17T02:03:20.453Z,10.03
2017-08-17T02:05:51.826Z,11.80
2017-08-17T02:08:22.843Z,12.30
2017-08-17T02:10:53.896Z,12.00
2017-08-17T02:13:24.861Z,11.67
2017-08-17T02:15:57.636Z,11.77
2017-08-17T02:18:28.652Z,12.20
2017-08-17T02:21:00.219Z,13.10
2017-08-17T02:23:31.689Z,12.70
2017-08-17T02:26:06.353Z,13.10
2017-08-17T02:28:37.355Z,13.60
2017-08-17T02:31:08.726Z,13.30
2017-08-17T02:33:39.714Z,13.23
2017-08-17T02:36:13.326Z,13.03
2017-08-17T02:38:45.053Z,12.70
2017-08-17T02:41:16.080Z,13.27
2017-08-17T02:43:47.065Z,12.10
2017-08-17T02:46:18.122Z,11.03
2017-08-17T02:48:49.526Z,13.60
2017-08-17T02:51:20.509Z,13.13
2017-08-17T02:53:53.157Z,13.20
2017-08-17T02:58:51.703Z,13.50
2017-08-17T03:01:22.702Z,13.83
2017-08-17T03:03:54.211Z,13.10
2017-08-17T03:06:25.218Z,13.90
2017-08-17T03:08:57.420Z,12.30
2017-08-17T03:11:28.434Z,12.97
2017-08-17T03:14:02.921Z,14.27
2017-08-17T03:16:33.953Z,12.83
2017-08-17T03:19:05.407Z,12.87
2017-08-17T03:21:36.417Z,12.70
2017-08-17T03:24:07.570Z,12.37
2017-08-17T03:26:38.571Z,13.30
2017-08-17T03:29:09.899Z,12.43
2017-08-17T03:31:41.227Z,11.67
2017-08-17T03:34:13.222Z,12.00
2017-08-17T03:36:44.779Z,13.90
2017-08-17T03:39:15.773Z,15.00
2017-08-17T03:41:47.658Z,15.37
2017-08-17T03:44:19.334Z,13.70
2017-08-17T03:46:50.406Z,13.80
2017-08-17T03:49:21.660Z,14.03
2017-08-17T03:51:52.665Z,13.87
2017-08-17T03:54:23.784Z,12.20
2017-08-17T03:56:55.317Z,12.70
2017-08-17T03:59:26.521Z,13.07
2017-08-17T04:01:59.662Z,13.30
2017-08-17T04:04:31.009Z,13.70
2017-08-17T04:07:02.549Z,13.73
2017-08-17T04:09:33.537Z,15.53
2017-08-17T04:12:05.562Z,16.00
2017-08-17T04:14:37.013Z,16.50
2017-08-17T04:17:08.009Z,16.37
2017-08-17T04:19:39.004Z,16.37
2017-08-17T04:22:10.911Z,14.90
2017-08-17T04:24:41.909Z,16.63
2017-08-17T04:27:12.896Z,15.13
2017-08-17T04:29:44.256Z,15.73
2017-08-17T04:32:15.253Z,14.47
2017-08-17T04:34:46.261Z,15.60
2017-08-17T04:37:17.229Z,15.10
2017-08-17T04:39:48.786Z,15.10
2017-08-17T04:42:20.424Z,13.90
2017-08-17T04:44:51.493Z,13.53
2017-08-17T04:47:23.014Z,15.00
2017-08-17T04:49:54.077Z,13.00
2017-08-17T04:52:25.253Z,13.67
2017-08-17T04:54:57.161Z,14.20
2017-08-17T04:57:44.200Z,14.50
2017-08-17T05:00:16.178Z,14.23
2017-08-17T05:02:47.657Z,14.87
2017-08-17T05:05:18.779Z,14.67
2017-08-17T05:07:49.835Z,14.93
2017-08-17T05:10:20.906Z,15.00
2017-08-17T05:12:52.392Z,15.03
2017-08-17T05:15:23.870Z,14.97
2017-08-17T05:17:54.949Z,13.87
2017-08-17T05:20:26.335Z,13.00
2017-08-17T05:22:58.071Z,14.30
2017-08-17T05:25:29.334Z,13.50
2017-08-17T05:28:05.191Z,19.00
2017-08-17T05:30:36.495Z,14.40
2017-08-17T05:33:07.494Z,13.70
2017-08-17T05:35:38.830Z,12.40
2017-08-17T05:38:09.873Z,12.70
2017-08-17T05:40:40.881Z,12.27
2017-08-17T05:43:12.220Z,12.30
2017-08-17T05:45:43.246Z,13.83
2017-08-17T05:48:15.120Z,15.40
2017-08-17T05:50:46.137Z,13.67
2017-08-17T05:53:17.157Z,13.43
2017-08-17T05:55:48.207Z,14.37
2017-08-17T05:58:19.264Z,13.37
2017-08-17T06:00:50.347Z,13.37
2017-08-17T06:03:21.367Z,14.20
2017-08-17T06:05:52.343Z,13.87
2017-08-17T06:08:24.021Z,13.20
2017-08-17T06:10:55.240Z,14.33
2017-08-17T06:13:26.234Z,14.10
2017-08-17T06:15:58.245Z,15.07
2017-08-17T06:18:29.670Z,17.07
2017-08-17T06:21:02.478Z,15.83
2017-08-17T06:23:33.478Z,14.77
2017-08-17T06:26:05.963Z,13.20
2017-08-17T06:28:36.964Z,10.60
2017-08-17T06:31:07.972Z,9.10
2017-08-17T06:33:39.078Z,11.30
2017-08-17T06:36:11.414Z,10.20
2017-08-17T06:38:42.674Z,10.40
2017-08-17T06:41:13.703Z,10.70
2017-08-17T06:43:44.685Z,10.37
2017-08-17T06:46:16.941Z,9.37
2017-08-17T06:48:47.946Z,9.50
2017-08-17T06:51:19.571Z,9.80
2017-08-17T06:53:50.635Z,8.27
2017-08-17T06:56:22.377Z,9.70
2017-08-17T06:58:53.733Z,8.93
2017-08-17T07:01:24.779Z,8.70
2017-08-17T07:03:55.793Z,9.20
2017-08-17T07:06:27.149Z,8.90
2017-08-17T07:08:59.656Z,8.50
2017-08-17T07:11:30.738Z,9.07
2017-08-17T07:14:04.060Z,8.80
2017-08-17T07:16:35.058Z,6.00
2017-08-17T07:19:06.064Z,8.30
2017-08-17T07:21:37.365Z,8.00
2017-08-17T07:24:08.455Z,6.50
2017-08-17T07:26:39.469Z,6.70
2017-08-17T07:29:10.858Z,7.13
2017-08-17T07:31:41.843Z,6.97
2017-08-17T07:34:13.940Z,7.07
2017-08-17T07:36:44.930Z,6.73
2017-08-17T07:39:15.897Z,7.93
2017-08-17T07:41:46.929Z,8.00
2017-08-17T07:44:17.921Z,7.13
2017-08-17T07:46:49.335Z,7.73
2017-08-17T07:49:20.622Z,7.60
2017-08-17T07:51:51.863Z,7.40
2017-08-17T07:54:22.997Z,7.33
2017-08-17T07:56:54.028Z,7.07
2017-08-17T07:59:25.025Z,6.47
2017-08-17T08:01:57.277Z,7.10
2017-08-17T08:04:28.378Z,7.83
2017-08-17T08:07:01.818Z,6.47
2017-08-17T08:09:34.019Z,7.30
2017-08-17T08:12:07.883Z,6.70
2017-08-17T08:14:38.855Z,6.80
2017-08-17T08:17:10.177Z,6.50
2017-08-17T08:19:41.146Z,7.27
2017-08-17T08:22:13.085Z,6.23
2017-08-17T08:24:44.438Z,6.60
2017-08-17T08:27:15.414Z,6.90
2017-08-17T08:29:46.459Z,6.93
2017-08-17T08:32:18.329Z,8.07
2017-08-17T08:34:49.397Z,7.83
2017-08-17T08:37:20.436Z,7.40
2017-08-17T08:39:51.561Z,7.20
2017-08-17T08:42:23.150Z,6.97
2017-08-17T08:44:54.175Z,7.20
2017-08-17T08:47:25.308Z,7.77
2017-08-17T08:49:57.306Z,7.80
2017-08-17T08:52:30.289Z,8.30
2017-08-17T08:55:08.674Z,8.00
2017-08-17T08:57:39.789Z,8.00
2017-08-17T09:00:15.672Z,25.00
2017-08-17T09:02:49.185Z,8.23
2017-08-17T09:05:20.280Z,7.97
2017-08-17T09:07:52.492Z,7.67
2017-08-17T09:10:23.562Z,8.57
2017-08-17T09:13:02.441Z,7.57
2017-08-17T09:15:37.201Z,9.20
2017-08-17T09:18:10.001Z,8.20
2017-08-17T09:20:42.259Z,8.60
2017-08-17T09:23:13.729Z,8.30
2017-08-17T09:25:45.199Z,8.43
2017-08-17T09:28:19.128Z,8.60
2017-08-17T09:31:15.897Z,7.87
2017-08-17T09:33:47.030Z,8.37
2017-08-17T09:36:21.992Z,8.47
2017-08-17T09:38:53.441Z,8.10
2017-08-17T09:41:24.430Z,8.60
2017-08-17T09:43:55.590Z,8.13
2017-08-17T09:46:26.708Z,8.77
2017-08-17T09:49:02.529Z,8.57
2017-08-17T09:51:33.517Z,7.57
2017-08-17T09:54:07.519Z,8.70
2017-08-17T09:56:38.921Z,8.57
2017-08-17T09:59:09.924Z,7.43
2017-08-17T10:01:40.930Z,7.63
2017-08-17T10:04:12.317Z,6.90
2017-08-17T10:06:43.307Z,6.73
2017-08-17T10:09:14.314Z,7.10
2017-08-17T10:11:45.790Z,7.20
2017-08-17T10:14:17.868Z,7.17
2017-08-17T10:16:49.184Z,7.40
2017-08-17T10:19:20.530Z,6.23
2017-08-17T10:21:51.595Z,5.77
2017-08-17T10:24:23.549Z,6.00
2017-08-17T10:26:54.542Z,6.23
2017-08-17T10:29:25.531Z,5.30
2017-08-17T10:31:57.347Z,4.90
2017-08-17T10:34:28.725Z,5.47
2017-08-17T10:37:02.586Z,4.57
2017-08-17T10:39:33.669Z,4.83
2017-08-17T10:42:08.637Z,4.80
2017-08-17T10:44:39.946Z,4.20
2017-08-17T10:47:11.165Z,5.80
2017-08-17T10:49:42.835Z,5.77
2017-08-17T10:52:15.691Z,6.00
2017-08-17T10:54:47.002Z,5.00
2017-08-17T10:57:18.039Z,5.13
2017-08-17T10:59:49.483Z,4.50
2017-08-17T11:02:21.317Z,5.33
2017-08-17T11:04:52.598Z,4.10
2017-08-17T11:07:23.932Z,4.63
2017-08-17T11:09:55.220Z,4.97
2017-08-17T11:12:26.275Z,3.77
2017-08-17T11:15:05.035Z,3.30
2017-08-17T11:17:37.184Z,3.67
2017-08-17T11:20:10.977Z,4.30
2017-08-17T11:22:42.714Z,4.47
2017-08-17T11:25:13.904Z,4.20
2017-08-17T11:27:45.214Z,4.00
2017-08-17T11:30:19.813Z,3.43
2017-08-17T11:32:51.009Z,3.97
2017-08-17T11:35:22.331Z,3.33
2017-08-17T11:37:53.558Z,3.43
2017-08-17T11:40:25.803Z,3.53
2017-08-17T11:43:03.512Z,3.83
2017-08-17T11:45:36.816Z,3.60
2017-08-17T11:48:09.511Z,3.17
2017-08-17T11:50:41.204Z,3.90
2017-08-17T11:53:13.259Z,3.57
2017-08-17T11:58:41.382Z,3.93
2017-08-17T12:01:13.038Z,3.47
2017-08-17T12:03:44.099Z,4.00
2017-08-17T12:06:18.025Z,3.50
2017-08-17T12:08:49.094Z,3.80
2017-08-17T12:11:20.536Z,3.90
2017-08-17T12:13:51.909Z,3.80
2017-08-17T12:16:23.889Z,3.73
2017-08-17T12:18:55.311Z,3.47
2017-08-17T12:21:27.339Z,3.70
2017-08-17T12:24:04.643Z,3.37
2017-08-17T12:26:35.656Z,3.63
2017-08-17T12:29:07.338Z,2.87
2017-08-17T12:31:38.479Z,3.83
2017-08-17T12:34:12.852Z,3.53
2017-08-17T12:36:44.288Z,3.60
2017-08-17T12:39:15.365Z,3.40
2017-08-17T12:41:48.547Z,3.53
2017-08-17T12:44:20.797Z,3.50
2017-08-17T12:46:52.064Z,2.70
2017-08-17T12:49:23.662Z,2.67
2017-08-17T12:51:55.572Z,2.77
2017-08-17T12:54:26.988Z,2.60
2017-08-17T12:57:07.770Z,2.30
2017-08-17T12:59:39.040Z,2.80
2017-08-17T13:02:12.022Z,2.40
2017-08-17T13:04:43.625Z,2.27
2017-08-17T13:07:15.302Z,2.30
2017-08-17T13:09:46.619Z,2.93
2017-08-17T13:12:19.656Z,2.20
2017-08-17T13:14:51.985Z,2.13
2017-08-17T13:20:35.973Z,1.90
2017-08-17T13:23:10.503Z,2.27
2017-08-17T13:25:42.041Z,2.67
2017-08-17T13:28:13.776Z,2.20
2017-08-17T13:30:47.936Z,2.37
2017-08-17T13:33:19.202Z,2.10
2017-08-17T13:35:51.030Z,1.90
2017-08-17T13:38:28.211Z,1.93
